createdAt,value
2019-03-17T00:00:25.239Z,5.53
2019-03-17T00:02:53.986Z,6.97
2019-03-17T00:05:21.109Z,5.20
2019-03-17T00:07:47.701Z,3.42
2019-03-17T00:10:14.501Z,3.25
2019-03-17T00:12:41.732Z,6.97
2019-03-17T00:15:08.632Z,5.33
2019-03-17T00:17:35.336Z,7.75
2019-03-17T00:20:02.206Z,4.95
2019-03-17T00:22:28.906Z,5.30
2019-03-17T00:25:08.192Z,5.37
2019-03-17T00:27:24.186Z,3.52
2019-03-17T00:29:50.863Z,3.20
2019-03-17T00:32:17.565Z,3.45
2019-03-17T00:34:44.680Z,4.80
2019-03-17T00:37:11.543Z,4.85
2019-03-17T00:39:38.313Z,4.45
2019-03-17T00:42:05.113Z,3.80
2019-03-17T00:44:31.800Z,3.05
2019-03-17T00:46:58.498Z,3.90
2019-03-17T00:49:25.223Z,5.20
2019-03-17T00:51:51.890Z,3.25
2019-03-17T00:54:18.578Z,7.55
2019-03-17T00:56:45.261Z,3.10
2019-03-17T00:59:12.338Z,6.17
2019-03-17T01:01:39.129Z,5.37
2019-03-17T01:04:05.812Z,4.22
2019-03-17T01:06:32.522Z,5.28
2019-03-17T01:08:59.314Z,6.00
2019-03-17T01:11:25.985Z,5.50
2019-03-17T01:13:52.688Z,3.42
2019-03-17T01:16:19.457Z,4.00
2019-03-17T01:18:46.175Z,6.47
2019-03-17T01:21:12.987Z,3.20
2019-03-17T01:23:39.666Z,4.75
2019-03-17T01:26:06.333Z,4.75
2019-03-17T01:28:33.143Z,6.92
2019-03-17T01:30:59.923Z,5.70
2019-03-17T01:33:26.734Z,8.70
2019-03-17T01:35:53.532Z,3.12
2019-03-17T01:38:20.244Z,6.70
2019-03-17T01:40:47.011Z,4.10
2019-03-17T01:43:14.107Z,2.95
2019-03-17T01:45:40.771Z,4.75
2019-03-17T01:48:07.464Z,4.80
2019-03-17T01:50:34.150Z,3.08
2019-03-17T01:53:00.741Z,3.17
2019-03-17T01:55:27.451Z,3.15
2019-03-17T01:57:54.165Z,5.35
2019-03-17T02:00:20.951Z,4.45
2019-03-17T02:02:47.647Z,2.67
2019-03-17T02:05:21.949Z,3.10
2019-03-17T02:07:43.051Z,5.45
2019-03-17T02:10:09.805Z,4.20
2019-03-17T02:12:36.591Z,2.47
2019-03-17T02:15:03.759Z,6.20
2019-03-17T02:17:30.345Z,4.87
2019-03-17T02:19:57.132Z,3.27
2019-03-17T02:22:24.319Z,2.42
2019-03-17T02:24:51.085Z,3.15
2019-03-17T02:27:17.779Z,4.00
2019-03-17T02:29:44.478Z,4.53
2019-03-17T02:32:11.141Z,2.37
2019-03-17T02:34:37.830Z,3.15
2019-03-17T02:37:04.636Z,2.60
2019-03-17T02:39:31.720Z,4.62
2019-03-17T02:41:58.412Z,3.98
2019-03-17T02:44:24.991Z,3.30
2019-03-17T02:46:51.652Z,4.22
2019-03-17T02:49:18.252Z,3.67
2019-03-17T02:51:44.811Z,2.62
2019-03-17T02:54:11.520Z,2.45
2019-03-17T02:56:38.261Z,2.75
2019-03-17T02:59:05.209Z,3.67
2019-03-17T03:01:31.773Z,2.42
2019-03-17T03:03:58.562Z,3.37
2019-03-17T03:06:25.369Z,2.58
2019-03-17T03:08:52.037Z,2.75
2019-03-17T03:11:18.717Z,5.37
2019-03-17T03:13:45.288Z,4.05
2019-03-17T03:16:11.858Z,2.35
2019-03-17T03:18:38.564Z,3.60
2019-03-17T03:21:05.355Z,2.52
2019-03-17T03:23:32.056Z,2.37
2019-03-17T03:25:58.720Z,2.85
2019-03-17T03:28:25.397Z,2.25
2019-03-17T03:30:52.264Z,2.95
2019-03-17T03:33:18.951Z,4.00
2019-03-17T03:35:45.534Z,3.60
2019-03-17T03:38:12.313Z,2.92
2019-03-17T03:40:39.029Z,4.17
2019-03-17T03:43:05.806Z,2.45
2019-03-17T03:45:32.777Z,4.17
2019-03-17T03:47:59.364Z,3.17
2019-03-17T03:50:26.164Z,4.95
2019-03-17T03:52:52.945Z,4.80
2019-03-17T03:55:19.787Z,3.25
2019-03-17T03:57:46.369Z,3.45
2019-03-17T04:00:13.668Z,2.22
2019-03-17T04:02:40.454Z,6.10
2019-03-17T04:05:07.319Z,3.33
2019-03-17T04:07:33.940Z,4.25
2019-03-17T04:10:00.995Z,5.08
2019-03-17T04:12:27.676Z,5.50
2019-03-17T04:14:54.363Z,4.00
2019-03-17T04:17:21.140Z,3.45
2019-03-17T04:19:47.738Z,4.45
2019-03-17T04:22:14.386Z,5.08
2019-03-17T04:24:41.193Z,4.47
2019-03-17T04:27:07.878Z,7.03
2019-03-17T04:29:34.585Z,7.70
2019-03-17T04:32:01.545Z,4.30
2019-03-17T04:34:28.145Z,4.85
2019-03-17T04:36:54.822Z,4.90
2019-03-17T04:39:21.413Z,5.53
2019-03-17T04:41:48.087Z,7.40
2019-03-17T04:44:20.728Z,9.58
2019-03-17T04:46:43.257Z,9.30
2019-03-17T04:49:09.939Z,8.70
2019-03-17T04:51:36.531Z,5.80
2019-03-17T04:54:03.309Z,9.23
2019-03-17T04:56:30.028Z,7.10
2019-03-17T04:58:56.792Z,6.35
2019-03-17T05:01:23.377Z,5.95
2019-03-17T05:03:51.227Z,12.95
2019-03-17T05:06:17.813Z,7.40
2019-03-17T05:08:44.407Z,8.38
2019-03-17T05:11:11.503Z,10.20
2019-03-17T05:13:38.267Z,6.10
2019-03-17T05:16:05.064Z,9.75
2019-03-17T05:18:31.832Z,15.32
2019-03-17T05:20:58.730Z,5.17
2019-03-17T05:23:25.438Z,6.50
2019-03-17T05:25:52.117Z,6.20
2019-03-17T05:28:18.694Z,8.75
2019-03-17T05:30:45.487Z,10.95
2019-03-17T05:33:12.159Z,10.55
2019-03-17T05:35:38.956Z,5.45
2019-03-17T05:38:05.648Z,6.55
2019-03-17T05:40:32.497Z,9.85
2019-03-17T05:42:59.070Z,7.20
2019-03-17T05:45:25.675Z,9.20
2019-03-17T05:47:52.348Z,9.68
2019-03-17T05:50:19.161Z,6.85
2019-03-17T05:52:48.100Z,13.85
2019-03-17T05:55:14.917Z,14.20
2019-03-17T05:57:41.621Z,6.72
2019-03-17T06:00:10.449Z,13.08
2019-03-17T06:02:37.231Z,7.72
2019-03-17T06:05:04.648Z,11.43
2019-03-17T06:07:31.412Z,6.87
2019-03-17T06:09:58.092Z,7.80
2019-03-17T06:12:24.730Z,11.50
2019-03-17T06:14:51.437Z,10.43
2019-03-17T06:17:18.252Z,15.38
2019-03-17T06:19:45.051Z,8.08
2019-03-17T06:22:11.631Z,7.70
2019-03-17T06:24:38.631Z,10.63
2019-03-17T06:27:05.346Z,9.68
2019-03-17T06:29:32.142Z,9.68
2019-03-17T06:31:58.948Z,6.15
2019-03-17T06:34:25.543Z,10.65
2019-03-17T06:36:54.478Z,12.58
2019-03-17T06:39:21.573Z,11.30
2019-03-17T06:41:48.685Z,7.55
2019-03-17T06:44:15.369Z,7.17
2019-03-17T06:46:42.459Z,8.90
2019-03-17T06:49:09.256Z,7.30
2019-03-17T06:51:35.942Z,13.18
2019-03-17T06:54:04.465Z,6.75
2019-03-17T06:56:31.582Z,16.57
2019-03-17T06:58:58.264Z,10.13
2019-03-17T07:01:25.296Z,7.65
2019-03-17T07:03:51.987Z,5.78
2019-03-17T07:06:18.692Z,7.33
2019-03-17T07:08:45.494Z,9.95
2019-03-17T07:11:12.200Z,9.50
2019-03-17T07:13:39.107Z,11.40
2019-03-17T07:16:05.935Z,10.75
2019-03-17T07:18:32.813Z,8.20
2019-03-17T07:20:59.863Z,6.45
2019-03-17T07:23:26.450Z,7.60
2019-03-17T07:25:54.915Z,9.58
2019-03-17T07:28:21.810Z,4.75
2019-03-17T07:30:48.617Z,7.67
2019-03-17T07:33:15.343Z,7.78
2019-03-17T07:35:43.172Z,7.90
2019-03-17T07:38:12.640Z,7.55
2019-03-17T07:41:00.559Z,13.60
2019-03-17T07:43:27.468Z,9.93
2019-03-17T07:45:54.265Z,7.55
2019-03-17T07:48:21.163Z,20.02
2019-03-17T07:50:48.019Z,8.83
2019-03-17T07:53:14.924Z,9.48
2019-03-17T07:55:41.814Z,6.78
2019-03-17T07:58:08.764Z,10.93
2019-03-17T08:00:35.612Z,6.83
2019-03-17T08:03:02.590Z,8.73
2019-03-17T08:05:29.444Z,7.72
2019-03-17T08:10:31.148Z,5.12
2019-03-17T08:12:57.723Z,7.58
2019-03-17T08:15:24.391Z,4.03
2019-03-17T08:17:51.071Z,7.15
2019-03-17T08:20:17.844Z,3.95
2019-03-17T08:22:44.548Z,7.30
2019-03-17T08:25:11.206Z,4.15
2019-03-17T08:27:37.912Z,3.85
2019-03-17T08:30:05.074Z,6.08
2019-03-17T08:32:31.857Z,5.75
2019-03-17T08:34:58.606Z,4.25
2019-03-17T08:37:26.390Z,1.40
2019-03-17T08:39:53.056Z,2.15
2019-03-17T08:42:19.744Z,3.35
2019-03-17T08:44:46.414Z,5.33
2019-03-17T08:47:13.115Z,7.35
2019-03-17T08:49:39.701Z,8.68
2019-03-17T08:52:06.469Z,5.75
2019-03-17T08:54:33.181Z,7.37
2019-03-17T08:56:59.844Z,5.33
2019-03-17T08:59:26.427Z,10.23
2019-03-17T09:01:53.088Z,2.95
2019-03-17T09:04:19.683Z,3.02
2019-03-17T09:06:46.262Z,6.92
2019-03-17T09:09:13.035Z,2.72
2019-03-17T09:11:39.687Z,2.95
2019-03-17T09:14:06.391Z,3.87
2019-03-17T09:16:33.052Z,6.05
2019-03-17T09:18:59.788Z,18.23
2019-03-17T09:21:26.464Z,2.95
2019-03-17T09:23:53.151Z,1.27
2019-03-17T09:26:19.911Z,2.10
2019-03-17T09:28:46.628Z,1.85
2019-03-17T09:31:13.195Z,3.65
2019-03-17T09:33:39.793Z,4.85
2019-03-17T09:36:06.577Z,6.35
2019-03-17T09:38:33.145Z,4.03
2019-03-17T09:40:59.850Z,1.92
2019-03-17T09:43:26.523Z,4.25
2019-03-17T09:45:53.113Z,2.83
2019-03-17T09:48:19.799Z,2.45
2019-03-17T09:50:46.611Z,0.70
2019-03-17T09:53:13.292Z,0.60
2019-03-17T09:55:39.966Z,0.93
2019-03-17T09:58:06.779Z,0.53
2019-03-17T10:00:33.550Z,1.62
2019-03-17T10:03:00.332Z,1.32
2019-03-17T10:05:27.023Z,2.15
2019-03-17T10:07:53.704Z,3.27
2019-03-17T10:10:20.497Z,2.95
2019-03-17T10:12:47.079Z,4.17
2019-03-17T10:15:13.890Z,3.17
2019-03-17T10:17:40.667Z,1.05
2019-03-17T10:20:09.974Z,1.77
2019-03-17T10:22:39.642Z,2.83
2019-03-17T10:25:06.466Z,1.17
2019-03-17T10:27:33.137Z,1.20
2019-03-17T10:29:59.835Z,1.17
2019-03-17T10:32:26.661Z,1.05
2019-03-17T10:34:53.328Z,1.40
2019-03-17T10:37:20.037Z,2.05
2019-03-17T10:39:46.826Z,2.00
2019-03-17T10:42:13.641Z,1.27
2019-03-17T10:44:40.453Z,1.00
2019-03-17T10:47:07.222Z,1.62
2019-03-17T10:49:33.905Z,1.22
2019-03-17T10:52:00.472Z,3.70
2019-03-17T10:54:27.481Z,2.83
2019-03-17T10:56:54.317Z,2.02
2019-03-17T10:59:21.116Z,1.50
2019-03-17T11:01:47.766Z,1.30
2019-03-17T11:04:14.552Z,1.47
2019-03-17T11:06:41.232Z,1.40
2019-03-17T11:09:08.014Z,1.82
2019-03-17T11:11:34.771Z,1.62
2019-03-17T11:14:01.377Z,1.72
2019-03-17T11:16:28.062Z,1.57
2019-03-17T11:18:54.747Z,1.75
2019-03-17T11:21:21.441Z,3.17
2019-03-17T11:23:48.025Z,1.72
2019-03-17T11:26:14.713Z,1.25
2019-03-17T11:28:41.383Z,1.72
2019-03-17T11:31:08.088Z,2.22
2019-03-17T11:33:34.754Z,1.80
2019-03-17T11:36:01.589Z,2.45
2019-03-17T11:38:28.335Z,1.50
2019-03-17T11:40:55.035Z,2.35
2019-03-17T11:43:21.790Z,1.20
2019-03-17T11:45:48.570Z,1.82
2019-03-17T11:48:15.232Z,1.32
2019-03-17T11:50:42.032Z,3.42
2019-03-17T11:53:08.848Z,2.60
2019-03-17T11:55:35.707Z,2.75
2019-03-17T11:58:02.273Z,2.27
2019-03-17T12:00:29.051Z,2.42
2019-03-17T12:02:55.823Z,1.57
2019-03-17T12:05:22.513Z,2.30
2019-03-17T12:07:49.303Z,3.77
2019-03-17T12:10:16.074Z,4.78
2019-03-17T12:12:42.853Z,1.87
2019-03-17T12:15:12.884Z,4.30
2019-03-17T12:17:39.743Z,3.58
2019-03-17T12:20:07.517Z,4.72
2019-03-17T12:22:34.092Z,2.72
2019-03-17T12:25:00.735Z,2.50
2019-03-17T12:27:27.504Z,1.30
2019-03-17T12:29:54.349Z,4.00
2019-03-17T12:32:21.015Z,0.72
2019-03-17T12:34:47.599Z,3.02
2019-03-17T12:37:14.435Z,1.22
2019-03-17T12:39:41.102Z,0.78
2019-03-17T12:42:07.900Z,0.82
2019-03-17T12:44:34.576Z,1.85
2019-03-17T12:47:01.190Z,0.82
2019-03-17T12:49:27.963Z,1.10
2019-03-17T12:51:54.775Z,2.10
2019-03-17T12:54:21.421Z,1.35
2019-03-17T12:56:48.041Z,1.72
2019-03-17T12:59:14.720Z,5.67
2019-03-17T13:01:41.393Z,1.00
2019-03-17T13:04:08.179Z,3.27
2019-03-17T13:06:34.860Z,3.17
2019-03-17T13:09:01.445Z,1.50
2019-03-17T13:11:28.114Z,2.08
2019-03-17T13:13:54.807Z,0.85
2019-03-17T13:16:21.407Z,2.80
2019-03-17T13:18:48.174Z,15.45
2019-03-17T13:21:14.971Z,1.20
2019-03-17T13:23:41.642Z,1.10
2019-03-17T13:26:10.322Z,1.35
2019-03-17T13:28:36.910Z,1.70
2019-03-17T13:31:03.706Z,1.00
2019-03-17T13:33:30.377Z,1.57
2019-03-17T13:35:56.960Z,1.67
2019-03-17T13:38:23.640Z,2.12
2019-03-17T13:40:50.346Z,1.82
2019-03-17T13:43:17.125Z,1.50
2019-03-17T13:45:43.843Z,3.87
2019-03-17T13:48:10.636Z,5.35
2019-03-17T13:50:37.513Z,2.83
2019-03-17T13:53:04.203Z,2.72
2019-03-17T13:55:31.026Z,1.70
2019-03-17T13:57:57.801Z,3.20
2019-03-17T14:00:24.605Z,2.35
2019-03-17T14:02:51.284Z,3.35
2019-03-17T14:05:17.965Z,3.98
2019-03-17T14:07:44.758Z,4.20
2019-03-17T14:10:14.454Z,2.72
2019-03-17T14:12:41.587Z,2.05
2019-03-17T14:15:09.455Z,2.00
2019-03-17T14:17:36.249Z,1.50
2019-03-17T14:20:03.734Z,3.62
2019-03-17T14:22:30.416Z,1.22
2019-03-17T14:24:57.083Z,1.37
2019-03-17T14:27:23.860Z,1.67
2019-03-17T14:29:50.447Z,1.17
2019-03-17T14:32:17.134Z,2.15
2019-03-17T14:34:43.906Z,1.62
2019-03-17T14:37:10.660Z,0.98
2019-03-17T14:39:39.392Z,1.70
2019-03-17T14:42:06.218Z,2.37
2019-03-17T14:44:34.552Z,2.08
2019-03-17T14:47:01.266Z,1.20
2019-03-17T14:49:27.829Z,2.15
2019-03-17T14:51:54.672Z,2.85
2019-03-17T14:54:21.486Z,4.17
2019-03-17T14:56:48.086Z,1.82
2019-03-17T14:59:14.690Z,0.57
2019-03-17T15:01:41.380Z,0.72
2019-03-17T15:04:08.147Z,1.02
2019-03-17T15:06:34.863Z,2.08
2019-03-17T15:09:01.655Z,4.72
2019-03-17T15:11:28.334Z,0.95
2019-03-17T15:13:55.018Z,1.45
2019-03-17T15:16:21.691Z,1.20
2019-03-17T15:18:48.740Z,1.62
2019-03-17T15:21:15.433Z,2.60
2019-03-17T15:23:42.131Z,3.00
2019-03-17T15:26:08.910Z,1.12
2019-03-17T15:28:35.700Z,0.62
2019-03-17T15:31:11.410Z,0.90
2019-03-17T15:33:30.949Z,0.93
2019-03-17T15:35:57.517Z,0.90
2019-03-17T15:38:24.097Z,3.20
2019-03-17T15:40:50.653Z,1.80
2019-03-17T15:43:17.436Z,1.85
2019-03-17T15:45:44.110Z,2.80
2019-03-17T15:48:10.801Z,1.57
2019-03-17T15:50:37.470Z,4.78
2019-03-17T15:53:04.257Z,2.35
2019-03-17T15:55:31.036Z,1.00
2019-03-17T15:57:57.820Z,2.55
2019-03-17T16:00:26.658Z,3.40
2019-03-17T16:02:54.007Z,3.77
2019-03-17T16:05:21.024Z,3.67
2019-03-17T16:07:47.885Z,3.10
2019-03-17T16:10:15.872Z,1.37
2019-03-17T16:12:42.664Z,4.92
2019-03-17T16:15:10.448Z,4.28
2019-03-17T16:17:37.032Z,4.22
2019-03-17T16:20:04.237Z,2.72
2019-03-17T16:22:30.893Z,4.25
2019-03-17T16:24:57.490Z,2.40
2019-03-17T16:27:24.160Z,2.85
2019-03-17T16:29:50.959Z,7.22
2019-03-17T16:32:17.623Z,1.62
2019-03-17T16:34:44.468Z,2.87
2019-03-17T16:37:11.282Z,1.57
2019-03-17T16:39:37.878Z,5.97
2019-03-17T16:42:04.646Z,5.78
2019-03-17T16:44:31.346Z,3.80
2019-03-17T16:46:58.107Z,3.77
2019-03-17T16:49:24.801Z,2.35
2019-03-17T16:51:51.642Z,4.05
2019-03-17T16:54:18.225Z,4.15
2019-03-17T16:56:44.920Z,3.25
2019-03-17T16:59:11.700Z,16.73
2019-03-17T17:01:38.267Z,2.75
2019-03-17T17:04:05.154Z,5.37
2019-03-17T17:06:31.922Z,4.35
2019-03-17T17:08:58.623Z,1.82
2019-03-17T17:11:25.338Z,1.82
2019-03-17T17:13:52.115Z,2.30
2019-03-17T17:16:18.794Z,4.83
2019-03-17T17:18:45.493Z,4.25
2019-03-17T17:21:12.282Z,2.55
2019-03-17T17:23:38.995Z,4.33
2019-03-17T17:26:09.928Z,3.37
2019-03-17T17:28:36.619Z,2.62
2019-03-17T17:31:03.432Z,4.75
2019-03-17T17:33:30.104Z,3.08
2019-03-17T17:35:56.805Z,2.10
2019-03-17T17:38:23.534Z,2.10
2019-03-17T17:40:50.236Z,2.60
2019-03-17T17:43:16.944Z,1.50
2019-03-17T17:45:43.653Z,1.60
2019-03-17T17:48:10.229Z,7.33
2019-03-17T17:50:37.024Z,3.60
2019-03-17T17:53:03.800Z,3.10
2019-03-17T17:55:30.542Z,1.45
2019-03-17T17:57:57.363Z,0.70
2019-03-17T18:00:24.442Z,2.37
2019-03-17T18:02:51.231Z,2.52
2019-03-17T18:05:18.043Z,2.27
2019-03-17T18:07:44.822Z,3.05
2019-03-17T18:10:11.604Z,2.10
2019-03-17T18:12:38.310Z,2.50
2019-03-17T18:15:06.524Z,6.30
2019-03-17T18:17:33.362Z,4.40
2019-03-17T18:20:00.338Z,2.62
2019-03-17T18:22:26.927Z,3.42
2019-03-17T18:24:53.643Z,7.20
2019-03-17T18:27:20.237Z,4.05
2019-03-17T18:29:47.038Z,2.95
2019-03-17T18:32:13.822Z,5.03
2019-03-17T18:34:40.661Z,2.22
2019-03-17T18:37:07.445Z,5.03
2019-03-17T18:39:34.094Z,4.25
2019-03-17T18:42:00.900Z,2.70
2019-03-17T18:44:27.734Z,3.77
2019-03-17T18:46:54.526Z,3.65
2019-03-17T18:49:21.089Z,2.70
2019-03-17T18:51:47.678Z,5.95
2019-03-17T18:54:14.370Z,6.55
2019-03-17T18:56:40.972Z,10.58
2019-03-17T18:59:07.646Z,4.80
2019-03-17T19:01:34.246Z,5.35
2019-03-17T19:04:01.015Z,5.42
2019-03-17T19:06:27.853Z,5.25
2019-03-17T19:08:54.426Z,6.17
2019-03-17T19:11:21.223Z,4.92
2019-03-17T19:13:47.932Z,7.83
2019-03-17T19:16:14.614Z,5.87
2019-03-17T19:18:41.417Z,4.37
2019-03-17T19:21:08.177Z,5.53
2019-03-17T19:23:34.772Z,4.62
2019-03-17T19:26:01.485Z,4.17
2019-03-17T19:28:28.064Z,10.35
2019-03-17T19:30:54.750Z,6.28
2019-03-17T19:33:21.571Z,5.72
2019-03-17T19:35:48.292Z,3.83
2019-03-17T19:38:14.853Z,5.87
2019-03-17T19:40:41.526Z,7.25
2019-03-17T19:43:08.326Z,4.58
2019-03-17T19:45:35.001Z,8.08
2019-03-17T19:48:01.693Z,4.25
2019-03-17T19:50:28.458Z,6.97
2019-03-17T19:52:55.147Z,7.03
2019-03-17T19:55:21.946Z,5.22
2019-03-17T19:57:48.772Z,5.70
2019-03-17T20:00:15.573Z,5.67
2019-03-17T20:02:42.408Z,3.83
2019-03-17T20:05:09.743Z,4.62
2019-03-17T20:07:36.314Z,4.08
2019-03-17T20:10:03.608Z,6.85
2019-03-17T20:12:30.401Z,2.45
2019-03-17T20:14:57.166Z,3.83
2019-03-17T20:17:23.760Z,4.42
2019-03-17T20:19:50.326Z,5.55
2019-03-17T20:22:17.016Z,4.67
2019-03-17T20:24:43.690Z,4.03
2019-03-17T20:27:10.473Z,4.67
2019-03-17T20:29:37.231Z,3.37
2019-03-17T20:32:04.061Z,3.70
2019-03-17T20:34:30.769Z,4.25
2019-03-17T20:36:57.602Z,5.37
2019-03-17T20:39:24.275Z,5.22
2019-03-17T20:41:50.952Z,3.67
2019-03-17T20:44:17.682Z,10.30
2019-03-17T20:46:44.365Z,6.20
2019-03-17T20:49:11.074Z,7.75
2019-03-17T20:51:37.860Z,4.87
2019-03-17T20:54:04.676Z,3.30
2019-03-17T20:56:31.463Z,5.37
2019-03-17T20:58:58.157Z,5.55
2019-03-17T21:01:24.924Z,4.62
2019-03-17T21:03:51.630Z,3.72
2019-03-17T21:06:18.320Z,3.12
2019-03-17T21:08:45.031Z,5.78
2019-03-17T21:11:11.620Z,4.30
2019-03-17T21:13:46.656Z,4.92
2019-03-17T21:16:06.919Z,5.37
2019-03-17T21:18:33.515Z,6.65
2019-03-17T21:21:00.237Z,7.62
2019-03-17T21:23:26.843Z,3.52
2019-03-17T21:25:53.539Z,5.95
2019-03-17T21:28:20.252Z,6.67
2019-03-17T21:30:47.050Z,3.47
2019-03-17T21:33:13.652Z,4.37
2019-03-17T21:35:40.427Z,6.75
2019-03-17T21:38:08.405Z,6.87
2019-03-17T21:40:35.175Z,6.65
2019-03-17T21:43:01.968Z,9.23
2019-03-17T21:45:28.770Z,6.80
2019-03-17T21:47:55.595Z,4.65
2019-03-17T21:50:22.379Z,5.83
2019-03-17T21:52:49.059Z,8.05
2019-03-17T21:55:15.841Z,9.13
2019-03-17T21:57:42.658Z,8.00
2019-03-17T22:00:11.641Z,6.28
2019-03-17T22:02:38.339Z,6.78
2019-03-17T22:05:05.153Z,9.13
2019-03-17T22:07:31.842Z,4.97
2019-03-17T22:09:58.570Z,7.08
2019-03-17T22:12:25.261Z,8.83
2019-03-17T22:14:52.087Z,10.30
2019-03-17T22:17:18.732Z,8.95
2019-03-17T22:19:45.319Z,11.08
2019-03-17T22:22:12.011Z,8.93
2019-03-17T22:24:38.696Z,7.92
2019-03-17T22:27:05.492Z,4.45
2019-03-17T22:29:32.343Z,8.45
2019-03-17T22:31:59.060Z,6.25
2019-03-17T22:34:25.883Z,6.62
2019-03-17T22:36:52.560Z,6.80
2019-03-17T22:39:19.243Z,7.67
2019-03-17T22:41:46.028Z,8.15
2019-03-17T22:44:23.938Z,8.98
2019-03-17T22:46:41.155Z,8.45
2019-03-17T22:49:07.861Z,6.08
2019-03-17T22:51:34.703Z,4.97
2019-03-17T22:54:01.523Z,6.95
2019-03-17T22:56:28.227Z,7.15
2019-03-17T22:58:55.079Z,5.35
2019-03-17T23:01:21.879Z,7.30
2019-03-17T23:03:48.840Z,4.70
2019-03-17T23:06:15.527Z,6.03
2019-03-17T23:08:42.114Z,5.53
2019-03-17T23:11:09.149Z,5.75
2019-03-17T23:13:35.859Z,5.67
2019-03-17T23:16:02.664Z,7.72
2019-03-17T23:18:29.456Z,7.05
2019-03-17T23:20:56.249Z,9.33
2019-03-17T23:23:23.023Z,8.48
2019-03-17T23:25:49.815Z,9.53
2019-03-17T23:28:16.385Z,6.92
2019-03-17T23:30:43.220Z,7.75
2019-03-17T23:33:09.908Z,8.05
2019-03-17T23:35:36.714Z,11.05
2019-03-17T23:38:03.392Z,9.30
2019-03-17T23:40:30.251Z,12.75
2019-03-17T23:42:57.361Z,9.75
2019-03-17T23:45:24.074Z,8.35
2019-03-17T23:47:50.858Z,7.97
2019-03-17T23:50:17.659Z,9.05
2019-03-17T23:52:44.425Z,13.62
2019-03-17T23:55:11.242Z,13.15
2019-03-17T23:57:38.046Z,10.98
